Time;durP1;ratioP1;P1;durP2;ratioP2;P2;SDS_P1;SDS_P2;PMS_P1;PMS_P2;Temp;Humidity;BMP_temperature;BMP_pressure;BME280_temperature;BME280_humidity;BME280_pressure;Samples;Min_cycle;Max_cycle;Signal;HPM_P1;HPM_P2
2021/06/28 00:00:19;;;;;;;12.95;7.25;;;;;;;18.08;73.57;101274.16;5035061;28;20479;-78
2021/06/28 00:02:45;;;;;;;12.48;7.65;;;;;;;18.06;73.47;101269.75;5033712;28;20383;-80
2021/06/28 00:05:13;;;;;;;12.07;8.05;;;;;;;18.06;73.27;101288.84;5033847;28;20029;-78
2021/06/28 00:07:38;;;;;;;11.05;7.97;;;;;;;17.99;73.37;101284.28;5034630;28;20021;-78
2021/06/28 00:10:06;;;;;;;10.52;7.22;;;;;;;17.96;73.33;101284.19;5034792;28;20040;-78
2021/06/28 00:12:31;;;;;;;12.52;8.75;;;;;;;17.89;73.92;101282.25;5033631;28;20029;-78
2021/06/28 00:14:57;;;;;;;11.55;8.20;;;;;;;17.90;73.67;101276.19;5050745;28;20445;-80
2021/06/28 00:17:24;;;;;;;11.43;7.88;;;;;;;17.88;73.99;101280.47;5036817;28;20059;-79
2021/06/28 00:19:50;;;;;;;14.15;8.73;;;;;;;17.77;73.96;101273.22;5036968;28;20139;-80
2021/06/28 00:22:16;;;;;;;14.50;8.95;;;;;;;17.73;74.32;101279.19;5036703;28;20021;-80
2021/06/28 00:24:42;;;;;;;11.95;9.00;;;;;;;17.72;74.08;101279.13;5053858;28;20031;-78
2021/06/28 00:27:07;;;;;;;13.23;9.43;;;;;;;17.65;74.76;101280.69;5054580;28;20134;-77
2021/06/28 00:29:33;;;;;;;11.85;7.88;;;;;;;17.66;74.77;101287.66;5053921;28;20105;-78
2021/06/28 00:31:58;;;;;;;13.15;8.63;;;;;;;17.61;74.96;101291.84;5054429;28;20486;-80
2021/06/28 00:34:24;;;;;;;13.25;9.55;;;;;;;17.60;74.79;101290.06;5054332;28;20086;-80
2021/06/28 00:36:49;;;;;;;12.45;9.40;;;;;;;17.51;75.00;101296.78;5054309;28;20048;-80
2021/06/28 00:39:15;;;;;;;13.60;9.70;;;;;;;17.50;74.97;101295.00;5036390;28;20032;-81
2021/06/28 00:41:41;;;;;;;13.18;10.23;;;;;;;17.49;74.75;101288.00;5036247;28;20539;-81
2021/06/28 00:44:06;;;;;;;14.27;10.65;;;;;;;17.48;75.18;101288.84;5036179;28;20029;-78
2021/06/28 00:46:31;;;;;;;13.30;10.27;;;;;;;17.44;75.33;101289.56;5053342;28;20040;-79
2021/06/28 00:48:57;;;;;;;17.00;10.98;;;;;;;17.41;75.45;101288.59;5035639;28;20033;-79
2021/06/28 00:51:23;;;;;;;15.70;11.05;;;;;;;17.37;75.62;101287.63;5053774;28;20227;-79
2021/06/28 00:53:49;;;;;;;16.92;11.68;;;;;;;17.37;75.65;101292.81;5054058;28;20024;-80
2021/06/28 00:56:16;;;;;;;15.75;11.02;;;;;;;17.41;75.28;101284.28;5019481;28;20036;-80
2021/06/28 00:58:43;;;;;;;16.80;11.05;;;;;;;17.45;75.22;101296.53;5036201;28;20032;-80
2021/06/28 01:01:08;;;;;;;17.33;11.00;;;;;;;17.41;75.21;101288.59;5035611;28;20028;-79
2021/06/28 01:03:34;;;;;;;13.75;10.70;;;;;;;17.39;75.44;101285.94;5036253;28;20025;-79
2021/06/28 01:06:01;;;;;;;17.55;11.18;;;;;;;17.40;74.84;101282.50;5019345;28;20021;-79
2021/06/28 01:08:27;;;;;;;16.55;11.23;;;;;;;17.36;75.28;101285.84;5035306;28;20024;-79
2021/06/28 01:10:53;;;;;;;14.05;11.18;;;;;;;17.22;76.00;101283.69;5035298;28;20025;-82
2021/06/28 01:13:18;;;;;;;18.15;11.88;;;;;;;17.29;75.35;101283.88;5035771;28;20025;-81
2021/06/28 01:15:44;;;;;;;17.05;11.45;;;;;;;17.29;75.54;101286.50;5053651;28;20033;-80
2021/06/28 01:18:09;;;;;;;14.27;10.77;;;;;;;17.27;75.68;101293.38;5035547;28;20032;-80
2021/06/28 01:20:35;;;;;;;17.35;12.27;;;;;;;17.22;75.50;101288.91;5035631;28;20108;-81
2021/06/28 01:23:25;;;;;;;15.75;11.32;;;;;;;17.26;75.78;101294.19;5034997;28;20466;-78
2021/06/28 01:25:56;;;;;;;17.15;10.75;;;;;;;17.21;75.95;101281.91;5048032;28;20040;-79
2021/06/28 01:28:22;;;;;;;18.58;12.02;;;;;;;17.17;75.88;101290.47;5053295;28;20021;-80
2021/06/28 01:30:48;;;;;;;17.65;11.95;;;;;;;17.13;76.05;101298.16;5018910;28;20028;-80
2021/06/28 01:33:14;;;;;;;18.73;12.75;;;;;;;17.04;76.41;101288.31;5035396;28;20036;-80
2021/06/28 01:35:40;;;;;;;20.48;13.02;;;;;;;17.04;76.33;101286.59;5033688;28;20028;-80
2021/06/28 01:38:07;;;;;;;15.73;12.00;;;;;;;17.02;76.51;101279.56;5052043;28;20096;-78
2021/06/28 01:40:33;;;;;;;20.80;12.25;;;;;;;17.02;76.71;101284.78;5035119;28;20052;-80
2021/06/28 01:42:59;;;;;;;17.75;12.25;;;;;;;16.91;76.95;101282.66;5035361;28;20096;-79
2021/06/28 01:45:25;;;;;;;19.42;12.93;;;;;;;17.05;76.30;101284.88;5035419;28;20179;-80
2021/06/28 01:47:53;;;;;;;18.58;12.27;;;;;;;17.05;76.64;101292.69;5034816;28;20537;-78
2021/06/28 01:50:21;;;;;;;17.92;11.57;;;;;;;17.06;76.81;101291.84;5035326;28;20474;-79
2021/06/28 01:52:47;;;;;;;18.27;13.20;;;;;;;16.99;76.83;101284.66;5052400;28;20132;-80
2021/06/28 01:55:15;;;;;;;21.80;12.82;;;;;;;16.99;76.93;101284.66;5034366;28;20064;-79
2021/06/28 01:57:43;;;;;;;23.05;13.38;;;;;;;16.84;77.57;101280.69;5034683;28;20036;-78
2021/06/28 02:00:12;;;;;;;20.45;13.00;;;;;;;16.97;76.65;101283.69;5034848;28;20032;-80
2021/06/28 02:02:38;;;;;;;20.08;13.48;;;;;;;16.92;76.63;101287.03;5054664;28;20545;-78
2021/06/28 02:05:05;;;;;;;19.75;12.13;;;;;;;16.91;76.79;101279.16;5055149;28;20068;-79
2021/06/28 02:07:31;;;;;;;21.35;14.35;;;;;;;16.86;77.03;101267.72;5037646;28;20478;-77
2021/06/28 02:09:56;;;;;;;20.67;13.30;;;;;;;16.85;76.85;101266.84;5052780;28;20033;-78
2021/06/28 02:12:22;;;;;;;19.80;13.98;;;;;;;16.88;76.82;101266.94;5052470;28;20112;-79
2021/06/28 02:14:47;;;;;;;17.98;13.35;;;;;;;16.83;77.01;101265.91;5051371;28;20068;-79
2021/06/28 02:17:12;;;;;;;20.95;14.50;;;;;;;16.83;77.09;101263.31;5041781;28;20544;-79
2021/06/28 02:19:38;;;;;;;19.77;14.30;;;;;;;16.84;76.86;101259.88;5034882;28;20112;-78
2021/06/28 02:22:03;;;;;;;19.95;13.57;;;;;;;16.75;76.95;101256.97;5051904;28;20035;-68
2021/06/28 02:24:29;;;;;;;24.30;14.45;;;;;;;16.81;76.83;101254.56;5052768;28;20024;-69
2021/06/28 02:26:55;;;;;;;21.08;14.43;;;;;;;16.78;77.01;101246.66;5017795;28;20074;-69
2021/06/28 02:29:20;;;;;;;19.13;14.02;;;;;;;16.81;77.01;101246.75;5052779;28;20434;-69
2021/06/28 02:31:46;;;;;;;24.67;15.32;;;;;;;16.56;77.70;101243.34;5052499;28;20033;-70
2021/06/28 02:34:12;;;;;;;21.70;14.25;;;;;;;16.60;77.73;101240.03;5034944;28;20040;-70
2021/06/28 02:36:38;;;;;;;23.80;14.52;;;;;;;16.46;78.47;101243.88;5034648;28;20083;-70
2021/06/28 02:39:07;;;;;;;20.65;13.48;;;;;;;16.54;77.88;101239.81;5034244;28;20402;-70
2021/06/28 02:41:33;;;;;;;20.17;14.38;;;;;;;16.20;79.68;101238.59;5052281;28;20057;-71
2021/06/28 02:43:58;;;;;;;23.50;15.35;;;;;;;16.24;79.53;101235.28;5034746;28;20060;-71
2021/06/28 02:46:24;;;;;;;25.20;16.02;;;;;;;16.48;78.34;101244.81;5033625;28;20029;-70
2021/06/28 02:48:50;;;;;;;25.17;13.90;;;;;;;16.56;78.26;101240.75;5036572;28;20032;-69
2021/06/28 02:51:16;;;;;;;21.70;14.43;;;;;;;16.47;78.21;101245.63;5047819;28;20497;-69
2021/06/28 02:53:42;;;;;;;21.25;13.93;;;;;;;16.51;77.54;101244.91;5065739;28;20028;-69
2021/06/28 02:56:15;;;;;;;19.67;14.02;;;;;;;16.64;77.49;101244.50;5052446;28;20052;-69
2021/06/28 02:58:43;;;;;;;19.45;13.95;;;;;;;16.61;77.21;101249.59;5063794;28;20028;-70
2021/06/28 03:01:09;;;;;;;20.50;14.32;;;;;;;16.64;77.43;101247.09;5054726;28;20427;-77
2021/06/28 03:03:35;;;;;;;21.55;13.43;;;;;;;16.61;77.41;101247.00;5056871;28;20066;-78
2021/06/28 03:06:01;;;;;;;21.38;13.63;;;;;;;16.52;78.06;101240.56;5063762;28;20025;-77
2021/06/28 03:08:27;;;;;;;20.85;13.65;;;;;;;16.48;77.82;101239.59;5056917;28;20024;-76
2021/06/28 03:10:53;;;;;;;19.73;13.43;;;;;;;16.49;77.84;101238.78;5054746;28;20025;-76
2021/06/28 03:13:18;;;;;;;20.50;13.75;;;;;;;16.35;78.54;101244.34;5065697;28;20149;-75
2021/06/28 03:15:43;;;;;;;20.48;13.73;;;;;;;16.31;78.89;101252.88;5056376;28;20119;-74
2021/06/28 03:18:09;;;;;;;22.70;15.07;;;;;;;16.16;79.67;101241.94;5055772;28;20403;-75
2021/06/28 03:20:34;;;;;;;20.33;14.52;;;;;;;16.40;78.85;101246.22;5055778;28;20027;-76
2021/06/28 03:23:00;;;;;;;24.33;15.10;;;;;;;16.30;78.54;101240.69;5037807;28;20177;-77
2021/06/28 03:25:26;;;;;;;21.08;14.55;;;;;;;16.37;78.49;101241.81;5055628;28;20039;-76
2021/06/28 03:27:51;;;;;;;21.08;13.65;;;;;;;16.41;78.45;101242.78;5037539;28;20032;-76
2021/06/28 03:30:17;;;;;;;19.95;12.80;;;;;;;16.45;78.26;101244.69;5037897;28;20372;-75
2021/06/28 03:32:44;;;;;;;23.98;14.38;;;;;;;16.46;78.22;101246.47;5037417;28;20036;-75
2021/06/28 03:35:11;;;;;;;20.67;13.27;;;;;;;16.47;77.87;101243.03;5037806;28;20025;-76
2021/06/28 03:37:37;;;;;;;21.40;13.48;;;;;;;16.59;77.70;101243.44;5037403;28;20029;-78
2021/06/28 03:40:03;;;;;;;19.42;12.60;;;;;;;16.55;78.14;101241.56;5021017;28;20454;-78
2021/06/28 03:42:29;;;;;;;19.15;12.98;;;;;;;16.50;78.34;101248.34;5055154;28;20021;-78
2021/06/28 03:44:54;;;;;;;18.88;12.48;;;;;;;16.43;79.04;101238.53;5037464;28;20167;-76
2021/06/28 03:47:20;;;;;;;19.83;13.52;;;;;;;16.28;79.55;101242.34;5054893;28;20052;-78
2021/06/28 03:49:45;;;;;;;21.35;13.27;;;;;;;16.19;80.61;101242.94;5037456;28;20378;-77
2021/06/28 03:52:11;;;;;;;23.15;13.55;;;;;;;16.36;79.95;101246.13;5037182;28;20028;-77
2021/06/28 03:54:37;;;;;;;22.45;13.93;;;;;;;16.55;79.01;101257.19;5055153;28;20063;-76
2021/06/28 03:57:03;;;;;;;18.23;12.77;;;;;;;16.64;78.61;101257.50;5054758;28;20032;-77
2021/06/28 03:59:28;;;;;;;19.13;12.50;;;;;;;16.54;79.01;101252.81;5054132;28;20450;-79
2021/06/28 04:01:54;;;;;;;19.42;12.50;;;;;;;16.85;77.49;101250.34;5037229;28;20040;-78
2021/06/28 04:04:20;;;;;;;18.60;12.18;;;;;;;16.93;77.26;101257.56;5036793;28;20124;-78
2021/06/28 04:06:46;;;;;;;17.45;11.45;;;;;;;17.04;76.56;101260.56;5054425;28;20021;-77
2021/06/28 04:09:12;;;;;;;19.35;11.88;;;;;;;17.02;76.43;101258.75;5055006;28;20100;-76
2021/06/28 04:11:37;;;;;;;20.58;12.50;;;;;;;16.72;77.31;101264.66;5037054;28;20267;-76
2021/06/28 04:14:02;;;;;;;18.40;12.65;;;;;;;16.93;76.45;101260.19;5033223;28;20042;-77
2021/06/28 04:16:28;;;;;;;19.67;11.68;;;;;;;16.75;76.90;101264.78;5033203;28;20112;-77
2021/06/28 04:18:54;;;;;;;20.10;11.45;;;;;;;16.85;77.03;101256.44;5033901;28;20037;-78
2021/06/28 04:21:20;;;;;;;14.88;10.90;;;;;;;17.06;76.11;101260.63;5033321;28;20032;-80
2021/06/28 04:23:45;;;;;;;16.88;11.15;;;;;;;17.07;76.37;101267.59;5033598;28;20500;-78
2021/06/28 04:26:10;;;;;;;22.60;12.40;;;;;;;17.08;76.33;101264.16;5034428;28;20798;-76
2021/06/28 04:28:37;;;;;;;15.60;10.98;;;;;;;16.97;76.64;101260.28;5033395;28;20021;-75
2021/06/28 04:31:04;;;;;;;17.73;11.27;;;;;;;17.17;75.88;101269.66;5034729;28;20068;-75
2021/06/28 04:33:30;;;;;;;23.33;11.27;;;;;;;17.26;75.50;101262.97;5033291;28;20053;-76
2021/06/28 04:35:57;;;;;;;17.23;11.55;;;;;;;17.23;75.20;101267.25;5034393;28;20064;-77
2021/06/28 04:38:22;;;;;;;18.63;11.55;;;;;;;17.32;75.07;101268.34;5013390;28;20053;-78
2021/06/28 04:40:48;;;;;;;18.08;11.93;;;;;;;17.14;75.93;101268.69;5013128;28;20061;-78
2021/06/28 04:43:14;;;;;;;19.08;12.13;;;;;;;17.01;76.36;101262.19;5021685;28;20447;-80
2021/06/28 04:45:40;;;;;;;15.40;11.48;;;;;;;17.21;75.74;101250.69;5039950;28;20037;-76
2021/06/28 04:48:07;;;;;;;16.20;11.10;;;;;;;17.28;76.03;101251.78;5043109;28;20087;-76
2021/06/28 04:50:33;;;;;;;19.13;11.80;;;;;;;17.25;75.94;101251.69;5039891;28;20143;-76
2021/06/28 04:52:59;;;;;;;18.75;11.02;;;;;;;17.36;76.17;101254.59;5042481;28;20116;-76
2021/06/28 04:55:25;;;;;;;20.27;11.45;;;;;;;17.32;75.87;101252.75;5044274;28;20100;-76
2021/06/28 04:57:52;;;;;;;18.25;10.82;;;;;;;17.33;76.23;101249.31;5042347;28;20017;-77
2021/06/28 05:00:20;;;;;;;19.48;11.50;;;;;;;17.36;75.90;101249.41;5043292;28;20036;-76
2021/06/28 05:02:45;;;;;;;15.95;10.98;;;;;;;17.34;76.24;101231.13;5055839;28;20020;-75
2021/06/28 05:05:12;;;;;;;16.02;10.68;;;;;;;17.38;75.88;101237.31;5042098;28;20024;-76
2021/06/28 05:07:38;;;;;;;14.45;9.65;;;;;;;17.60;75.80;101240.59;5042002;28;20025;-77
2021/06/28 05:10:04;;;;;;;16.67;11.10;;;;;;;17.61;75.61;101231.94;5042940;28;20025;-77
2021/06/28 05:12:30;;;;;;;19.60;11.10;;;;;;;17.60;75.65;101227.56;5042966;28;20029;-75
2021/06/28 05:14:56;;;;;;;15.18;10.23;;;;;;;17.51;76.06;101229.06;5045438;28;20037;-75
2021/06/28 05:17:21;;;;;;;14.70;9.85;;;;;;;17.74;76.13;101241.88;5044814;28;20021;-75
2021/06/28 05:19:46;;;;;;;15.00;9.57;;;;;;;17.98;74.85;101235.59;5039364;28;20059;-76
2021/06/28 05:22:12;;;;;;;13.60;9.38;;;;;;;17.99;75.12;101236.47;5039413;28;20100;-75
2021/06/28 05:24:39;;;;;;;15.05;9.63;;;;;;;18.08;74.27;101237.66;5039776;28;20052;-77
2021/06/28 05:27:05;;;;;;;16.52;9.38;;;;;;;17.85;75.41;101228.28;5042170;28;20100;-77
2021/06/28 05:29:31;;;;;;;14.30;9.63;;;;;;;17.94;75.59;101233.75;5041341;28;20033;-76
2021/06/28 05:31:56;;;;;;;14.80;8.98;;;;;;;18.20;74.61;101241.44;5059161;28;20075;-75
2021/06/28 05:34:22;;;;;;;13.77;9.45;;;;;;;18.38;74.03;101241.94;5040715;28;20025;-75
2021/06/28 05:36:47;;;;;;;18.77;9.68;;;;;;;18.27;73.88;101238.16;5041007;28;20029;-79
2021/06/28 05:39:13;;;;;;;12.02;8.63;;;;;;;18.49;72.92;101233.50;5035545;28;20029;-78
2021/06/28 05:41:38;;;;;;;16.92;8.68;;;;;;;18.53;72.91;101237.94;5033081;28;20025;-80
2021/06/28 05:44:04;;;;;;;17.08;9.15;;;;;;;18.69;72.85;101231.41;5033236;28;20083;-80
2021/06/28 05:46:30;;;;;;;12.43;8.18;;;;;;;18.76;72.06;101235.94;5031843;28;20398;-80
2021/06/28 05:48:55;;;;;;;12.07;8.35;;;;;;;18.75;71.75;101230.69;5033298;28;20029;-82
2021/06/28 05:51:21;;;;;;;13.77;8.55;;;;;;;18.73;72.07;101227.16;5031893;28;20075;-81
2021/06/28 05:53:48;;;;;;;12.95;8.30;;;;;;;18.73;72.29;101227.16;5032022;28;20454;-82
2021/06/28 05:56:13;;;;;;;13.05;7.72;;;;;;;18.93;71.25;101231.16;5031596;28;20025;-79
2021/06/28 05:58:40;;;;;;;16.17;7.82;;;;;;;19.00;71.20;101233.94;5031822;28;20105;-79
2021/06/28 06:01:06;;;;;;;15.32;7.90;;;;;;;19.16;70.94;101233.44;5031694;28;20021;-80
2021/06/28 06:03:31;;;;;;;13.77;7.85;;;;;;;19.30;70.42;101235.50;5031740;28;20021;-81
2021/06/28 06:05:57;;;;;;;11.50;8.00;;;;;;;19.40;71.27;101229.63;5031871;28;20025;-81
2021/06/28 06:08:24;;;;;;;13.07;7.60;;;;;;;19.62;70.26;101233.59;5032599;28;20061;-79
2021/06/28 06:10:51;;;;;;;10.50;7.40;;;;;;;19.61;69.00;101231.84;5031443;28;20021;-80
2021/06/28 06:13:16;;;;;;;11.07;7.38;;;;;;;19.73;69.14;101231.22;5033559;28;20034;-79
2021/06/28 06:15:42;;;;;;;11.73;7.32;;;;;;;19.68;69.42;101236.34;5034911;28;20062;-79
2021/06/28 06:18:07;;;;;;;12.52;7.32;;;;;;;20.03;68.56;101235.31;5051971;28;20115;-79
2021/06/28 06:20:33;;;;;;;13.55;7.05;;;;;;;20.36;67.25;101244.66;5034590;28;20033;-79
2021/06/28 06:22:58;;;;;;;12.00;6.75;;;;;;;20.47;67.44;101237.03;5037470;28;20021;-80
2021/06/28 06:25:24;;;;;;;12.45;7.72;;;;;;;20.46;65.71;101234.34;5059350;28;20029;-80
2021/06/28 06:27:49;;;;;;;14.15;6.90;;;;;;;20.64;66.26;101239.91;5041147;28;20024;-81
2021/06/28 06:30:15;;;;;;;9.25;7.05;;;;;;;20.56;66.16;101242.41;5059119;28;20029;-81
2021/06/28 06:32:41;;;;;;;9.00;6.53;;;;;;;20.80;65.79;101245.47;5059335;28;20104;-78
2021/06/28 06:35:07;;;;;;;13.45;6.95;;;;;;;20.83;66.16;101240.28;5041307;28;20053;-80
2021/06/28 06:37:33;;;;;;;18.85;7.22;;;;;;;20.73;65.18;101237.47;5040899;28;20025;-78
2021/06/28 06:39:59;;;;;;;11.75;6.80;;;;;;;20.86;64.97;101250.78;5041320;28;20067;-78
2021/06/28 06:42:25;;;;;;;10.77;6.93;;;;;;;20.96;65.20;101252.72;5041233;28;20116;-80
2021/06/28 06:44:50;;;;;;;8.88;6.30;;;;;;;21.29;64.41;101246.22;5041161;28;20116;-80
2021/06/28 06:47:16;;;;;;;11.98;6.90;;;;;;;21.27;64.54;101257.53;5041106;28;20091;-82
2021/06/28 06:49:42;;;;;;;9.63;6.05;;;;;;;21.25;64.31;101252.25;5041218;28;20036;-79
2021/06/28 06:52:09;;;;;;;10.85;6.10;;;;;;;21.81;62.97;101255.69;5058846;28;20056;-79
2021/06/28 06:54:35;;;;;;;9.38;6.32;;;;;;;21.73;61.18;101246.81;5041139;28;20398;-80
2021/06/28 06:57:01;;;;;;;10.77;6.40;;;;;;;21.75;62.05;101250.38;5058724;28;20033;-79
2021/06/28 06:59:26;;;;;;;11.23;6.30;;;;;;;21.93;61.79;101249.69;5058106;28;20021;-81
2021/06/28 07:01:51;;;;;;;8.93;6.32;;;;;;;22.14;59.90;101241.19;5058930;28;20021;-81
2021/06/28 07:04:18;;;;;;;8.43;5.97;;;;;;;22.14;61.05;101238.56;5058847;28;20519;-79
2021/06/28 07:06:44;;;;;;;9.55;5.70;;;;;;;22.11;60.31;101237.66;5058439;28;20086;-80
2021/06/28 07:09:09;;;;;;;8.38;5.38;;;;;;;22.31;60.55;101240.50;5038853;28;20033;-80
2021/06/28 07:11:35;;;;;;;7.40;5.07;;;;;;;22.38;60.19;101244.06;5038759;28;20044;-81
2021/06/28 07:14:00;;;;;;;10.77;5.80;;;;;;;22.72;60.54;101242.66;5038744;28;20340;-79
2021/06/28 07:16:32;;;;;;;6.88;5.15;;;;;;;23.30;59.23;101243.09;5021183;28;20032;-77
2021/06/28 07:18:59;;;;;;;10.68;6.60;;;;;;;23.66;57.87;101249.44;5038810;28;20083;-80
2021/06/28 07:21:25;;;;;;;8.30;5.25;;;;;;;23.41;57.71;101243.16;5029072;28;20478;-79
2021/06/28 07:23:52;;;;;;;8.98;5.35;;;;;;;23.43;54.22;101237.06;5059737;28;20036;-78
2021/06/28 07:26:20;;;;;;;9.95;4.53;;;;;;;23.57;55.14;101244.13;5058389;28;20419;-82
2021/06/28 07:28:46;;;;;;;6.00;4.38;;;;;;;23.67;55.10;101245.03;5054720;28;20512;-80
2021/06/28 07:31:12;;;;;;;7.68;4.70;;;;;;;23.85;54.40;101245.09;5064506;28;20085;-80
2021/06/28 07:33:40;;;;;;;8.15;4.90;;;;;;;24.13;53.92;101250.50;5033725;28;20108;-78
2021/06/28 07:36:06;;;;;;;8.30;4.20;;;;;;;24.24;53.23;101239.13;5054393;28;20024;-77
2021/06/28 07:38:32;;;;;;;10.60;4.38;;;;;;;24.49;53.65;101240.91;5056485;28;20021;-76
2021/06/28 07:40:57;;;;;;;5.85;4.25;;;;;;;24.59;52.40;101244.44;5054906;28;20028;-75
2021/06/28 07:43:23;;;;;;;6.55;4.55;;;;;;;25.00;52.34;101245.34;5063751;28;20028;-77
2021/06/28 07:45:48;;;;;;;4.85;4.03;;;;;;;25.17;50.61;101241.81;5053910;28;20029;-76
2021/06/28 07:48:15;;;;;;;5.90;3.70;;;;;;;25.73;49.49;101239.00;5054246;28;20021;-77
2021/06/28 07:50:42;;;;;;;7.35;4.00;;;;;;;25.96;48.34;101234.47;5055437;28;20100;-76
2021/06/28 07:53:08;;;;;;;5.45;3.97;;;;;;;25.44;46.85;101234.69;5051629;28;20466;-76
2021/06/28 07:55:34;;;;;;;7.45;3.53;;;;;;;25.82;47.47;101236.31;5056246;28;20184;-75
2021/06/28 07:58:00;;;;;;;5.50;3.63;;;;;;;25.98;46.85;101236.25;5047183;28;20028;-75
2021/06/28 08:00:25;;;;;;;6.63;4.10;;;;;;;26.05;49.35;101232.72;5065225;28;20028;-76
2021/06/28 08:02:51;;;;;;;6.75;3.60;;;;;;;26.15;46.71;101229.16;5053398;28;20354;-77
2021/06/28 08:05:16;;;;;;;6.20;3.60;;;;;;;25.81;46.19;101227.53;5063932;28;20021;-76
2021/06/28 08:07:42;;;;;;;5.55;3.63;;;;;;;26.27;45.87;101227.31;5064819;28;20033;-75
2021/06/28 08:10:10;;;;;;;5.68;3.63;;;;;;;26.07;46.31;101231.78;5063676;28;20020;-76
2021/06/28 08:12:35;;;;;;;4.60;3.58;;;;;;;26.38;44.73;101230.75;5050957;28;20020;-75
2021/06/28 08:15:01;;;;;;;5.75;3.30;;;;;;;26.78;46.48;101221.63;5051668;28;20045;-75
2021/06/28 08:17:26;;;;;;;4.78;3.78;;;;;;;26.88;44.10;101218.03;5054651;28;20047;-77
2021/06/28 08:19:52;;;;;;;5.95;3.20;;;;;;;26.71;44.28;101220.81;5052965;28;20059;-76
2021/06/28 08:22:19;;;;;;;7.90;3.58;;;;;;;26.65;45.95;101218.22;5036940;28;20063;-76
2021/06/28 08:24:45;;;;;;;3.35;3.03;;;;;;;27.00;44.09;101214.38;5052546;28;20035;-77
2021/06/28 08:27:10;;;;;;;3.70;3.30;;;;;;;27.04;43.90;101221.41;5053606;28;20020;-77
2021/06/28 08:29:36;;;;;;;7.55;3.53;;;;;;;26.83;45.60;101212.78;5055356;28;20028;-77
2021/06/28 08:32:02;;;;;;;5.47;3.28;;;;;;;26.79;43.55;101208.38;5047859;28;20020;-77
2021/06/28 08:34:28;;;;;;;6.78;3.13;;;;;;;26.52;43.41;101207.75;5035281;28;20081;-77
2021/06/28 08:36:54;;;;;;;3.72;3.20;;;;;;;26.77;45.46;101202.25;5062008;28;20169;-77
2021/06/28 08:39:20;;;;;;;5.45;3.35;;;;;;;27.28;44.90;101208.81;5063915;28;20356;-79
2021/06/28 08:41:49;;;;;;;3.85;3.28;;;;;;;27.45;43.65;101215.69;5053640;28;20028;-77
2021/06/28 08:44:15;;;;;;;4.15;3.40;;;;;;;27.44;43.03;101211.28;5030163;28;20028;-77
2021/06/28 08:46:44;;;;;;;9.63;3.70;;;;;;;27.44;43.35;101209.50;5052284;28;20037;-77
2021/06/28 08:49:10;;;;;;;4.50;3.10;;;;;;;27.00;43.44;101209.09;5069359;28;20112;-77
2021/06/28 08:51:36;;;;;;;7.15;3.20;;;;;;;26.47;44.00;101204.28;5061064;28;20314;-77
2021/06/28 08:54:06;;;;;;;5.22;3.35;;;;;;;26.35;45.92;101199.09;5041899;28;20086;-77
2021/06/28 08:56:33;;;;;;;4.55;3.47;;;;;;;26.22;45.31;101193.03;5061154;28;20052;-77
2021/06/28 08:58:59;;;;;;;4.70;3.28;;;;;;;26.61;45.69;101200.63;5061049;28;20540;-77
2021/06/28 09:01:25;;;;;;;4.45;3.63;;;;;;;26.18;45.53;101197.47;5060301;28;20103;-76
2021/06/28 09:03:51;;;;;;;5.95;3.50;;;;;;;26.37;45.15;101197.31;5051074;28;20025;-79
2021/06/28 09:06:26;;;;;;;4.72;3.40;;;;;;;26.08;45.25;101196.59;5049108;28;20085;-76
2021/06/28 09:09:03;;;;;;;4.80;3.42;;;;;;;26.74;43.91;101197.00;5049069;28;20106;-76
2021/06/28 09:11:33;;;;;;;5.50;3.47;;;;;;;27.10;45.20;101194.91;5052881;28;20016;-76
2021/06/28 09:13:59;;;;;;;4.45;3.13;;;;;;;27.02;42.95;101206.47;5045788;28;20044;-76
2021/06/28 09:16:28;;;;;;;4.78;3.13;;;;;;;27.01;44.03;101195.00;5047207;28;20039;-75
2021/06/28 09:18:55;;;;;;;6.00;3.35;;;;;;;27.53;43.69;101200.63;5063855;28;20028;-76
2021/06/28 09:21:27;;;;;;;4.18;3.00;;;;;;;28.13;40.22;101199.81;5048639;28;20163;-76
2021/06/28 09:23:53;;;;;;;5.22;3.40;;;;;;;28.68;40.22;101198.94;5047177;28;20072;-76
2021/06/28 09:26:19;;;;;;;3.92;3.03;;;;;;;33.20;31.61;101209.13;5048218;28;20032;-75
2021/06/28 09:28:49;;;;;;;3.85;2.80;;;;;;;38.04;21.39;101200.94;5057894;28;20029;-74
2021/06/28 09:31:36;;;;;;;3.90;2.83;;;;;;;41.08;18.22;101201.34;5057404;28;20028;-74
2021/06/28 09:34:07;;;;;;;4.00;3.08;;;;;;;42.14;17.36;101190.00;5045510;28;20040;-75
2021/06/28 09:36:42;;;;;;;3.40;2.80;;;;;;;41.12;19.03;101197.47;5052741;28;20021;-76
2021/06/28 09:39:26;;;;;;;3.58;2.58;;;;;;;40.82;18.88;101201.34;5027391;28;20108;-76
2021/06/28 09:41:58;;;;;;;5.20;2.72;;;;;;;38.00;22.02;101183.25;5050090;28;20020;-75
2021/06/28 09:44:26;;;;;;;3.03;2.45;;;;;;;39.35;20.36;101183.22;5048981;28;20025;-75
2021/06/28 09:47:13;;;;;;;5.53;2.33;;;;;;;38.54;20.57;101179.19;5047281;28;20024;-74
2021/06/28 09:49:41;;;;;;;3.88;2.38;;;;;;;38.07;21.02;101173.88;5044755;28;20649;-76
2021/06/28 09:52:07;;;;;;;5.78;2.65;;;;;;;37.61;22.08;101176.50;5044436;28;20067;-77
2021/06/28 09:54:35;;;;;;;4.45;2.45;;;;;;;36.62;24.31;101180.88;5059862;28;20056;-76
2021/06/28 09:57:00;;;;;;;4.03;2.45;;;;;;;36.32;24.80;101170.75;5033730;28;20493;-76
2021/06/28 09:59:31;;;;;;;3.30;2.25;;;;;;;35.28;26.17;101172.16;5047260;28;20057;-66
2021/06/28 10:02:12;;;;;;;4.55;2.50;;;;;;;35.31;26.84;101172.91;5058902;28;20028;-66
2021/06/28 10:07:27;;;;;;;2.85;2.50;;;;;;;35.89;24.92;101170.22;5041663;28;20090;-66
2021/06/28 10:10:26;;;;;;;2.88;2.50;;;;;;;37.10;22.97;101172.13;5051358;28;20021;-67
2021/06/28 10:12:51;;;;;;;3.30;2.30;;;;;;;37.84;21.58;101167.13;5048714;28;20017;-65
2021/06/28 10:15:18;;;;;;;2.90;2.33;;;;;;;38.77;20.13;101172.41;5062937;28;20041;-66
2021/06/28 10:17:44;;;;;;;4.15;2.55;;;;;;;38.86;20.87;101165.59;5062355;28;20433;-72
2021/06/28 10:20:13;;;;;;;3.05;2.25;;;;;;;39.70;19.91;101162.97;5060439;28;20098;-73
2021/06/28 10:22:40;;;;;;;3.40;2.40;;;;;;;40.33;18.88;101152.53;5064101;28;20028;-72
2021/06/28 10:25:07;;;;;;;3.03;2.10;;;;;;;40.46;19.16;101164.19;5057242;28;20021;-72
2021/06/28 10:27:34;;;;;;;2.53;2.10;;;;;;;40.80;17.69;101165.50;5060620;28;20481;-72
2021/06/28 10:30:00;;;;;;;2.97;2.30;;;;;;;39.51;19.10;101166.91;5029520;28;20120;-73
2021/06/28 10:32:30;;;;;;;4.93;2.15;;;;;;;38.61;19.71;101148.25;5043223;28;20460;-74
2021/06/28 10:34:56;;;;;;;7.43;2.42;;;;;;;38.24;20.49;101158.56;5060196;28;20375;-74
2021/06/28 10:37:36;;;;;;;3.13;2.42;;;;;;;39.25;18.68;101161.34;5051931;28;20025;-73
2021/06/28 10:40:19;;;;;;;4.13;2.42;;;;;;;38.93;18.63;101166.97;5060653;28;20032;-72
2021/06/28 10:42:54;;;;;;;4.82;2.83;;;;;;;39.42;17.59;101163.00;5045348;28;20075;-71
2021/06/28 10:45:43;;;;;;;3.83;2.47;;;;;;;42.02;15.04;101158.50;5043924;28;20031;-71
2021/06/28 10:48:09;;;;;;;4.35;2.30;;;;;;;42.47;15.66;101161.31;5058298;28;20025;-72
2021/06/28 10:50:50;;;;;;;3.92;2.17;;;;;;;41.99;14.99;101164.09;5056187;28;20048;-73
2021/06/28 10:53:16;;;;;;;4.68;2.10;;;;;;;42.01;15.97;101154.91;5056121;28;20021;-72
2021/06/28 10:55:42;;;;;;;2.85;2.22;;;;;;;41.95;15.39;101149.09;5049261;28;20118;-74
2021/06/28 10:58:32;;;;;;;3.05;2.17;;;;;;;37.62;19.21;101127.19;5058483;28;20053;-72
2021/06/28 11:01:06;;;;;;;3.95;2.05;;;;;;;35.45;22.48;101126.72;5035522;28;20399;-75
2021/06/28 11:03:33;;;;;;;3.17;2.45;;;;;;;33.49;25.40;101124.44;5058400;28;20028;-73
2021/06/28 11:06:21;;;;;;;3.03;2.10;;;;;;;34.67;25.60;101124.94;5051541;28;20543;-74
2021/06/28 11:09:00;;;;;;;3.75;2.40;;;;;;;34.27;24.97;101115.94;5046443;28;20474;-72
2021/06/28 11:11:44;;;;;;;4.50;2.47;;;;;;;33.30;24.48;101118.03;5053782;28;20059;-72
2021/06/28 11:14:19;;;;;;;2.83;2.50;;;;;;;31.77;27.91;101133.09;5060300;28;20072;-73
2021/06/28 11:16:57;;;;;;;3.42;2.17;;;;;;;32.12;27.93;101122.22;5037839;28;20017;-73
2021/06/28 11:19:51;;;;;;;3.88;2.33;;;;;;;31.89;27.60;101123.84;5039980;28;20040;-75